sensor_id;sensor_type;location;lat;lon;timestamp;pressure;altitude;pressure_sealevel;temperature;humidity
64230;BME280;50547;49.498;0.092;2023-01-31T00:01:51;1024.56;;;8.34;83.73
64230;BME280;50547;49.498;0.092;2023-01-31T00:04:20;1024.54;;;8.50;82.75
64230;BME280;50547;49.498;0.092;2023-01-31T00:06:49;1024.58;;;8.51;82.72
64230;BME280;50547;49.498;0.092;2023-01-31T00:09:18;1024.62;;;8.33;83.57
64230;BME280;50547;49.498;0.092;2023-01-31T00:11:47;1024.60;;;8.14;84.35
64230;BME280;50547;49.498;0.092;2023-01-31T00:14:18;1024.56;;;8.15;83.76
64230;BME280;50547;49.498;0.092;2023-01-31T00:16:47;1024.54;;;8.05;84.27
64230;BME280;50547;49.498;0.092;2023-01-31T00:19:16;1024.46;;;8.17;83.67
64230;BME280;50547;49.498;0.092;2023-01-31T00:21:45;1024.44;;;8.08;84.12
64230;BME280;50547;49.498;0.092;2023-01-31T00:24:15;1024.40;;;7.79;85.46
64230;BME280;50547;49.498;0.092;2023-01-31T00:26:44;1024.38;;;7.77;85.35
64230;BME280;50547;49.498;0.092;2023-01-31T00:29:13;1024.36;;;7.64;85.45
64230;BME280;50547;49.498;0.092;2023-01-31T00:31:42;1024.34;;;7.66;85.29
64230;BME280;50547;49.498;0.092;2023-01-31T00:34:11;1024.28;;;7.72;84.81
64230;BME280;50547;49.498;0.092;2023-01-31T00:36:40;1024.23;;;7.79;84.45
64230;BME280;50547;49.498;0.092;2023-01-31T00:39:09;1024.21;;;7.82;84.40
64230;BME280;50547;49.498;0.092;2023-01-31T00:41:38;1024.17;;;7.70;84.91
64230;BME280;50547;49.498;0.092;2023-01-31T00:44:08;1024.17;;;7.51;85.54
64230;BME280;50547;49.498;0.092;2023-01-31T00:46:37;1024.17;;;7.51;85.54
64230;BME280;50547;49.498;0.092;2023-01-31T00:49:06;1024.17;;;7.51;85.54
64230;BME280;50547;49.498;0.092;2023-01-31T00:51:35;1024.17;;;7.51;85.54
64230;BME280;50547;49.498;0.092;2023-01-31T00:54:04;1024.17;;;7.51;85.54
64230;BME280;50547;49.498;0.092;2023-01-31T00:56:33;1024.17;;;7.51;85.54
64230;BME280;50547;49.498;0.092;2023-01-31T00:59:02;1024.17;;;7.51;85.54
64230;BME280;50547;49.498;0.092;2023-01-31T01:01:31;1024.17;;;7.51;85.54
64230;BME280;50547;49.498;0.092;2023-01-31T01:04:01;1024.17;;;7.51;85.54
64230;BME280;50547;49.498;0.092;2023-01-31T01:06:30;1024.17;;;7.51;85.54
64230;BME280;50547;49.498;0.092;2023-01-31T01:08:59;1024.17;;;7.51;85.54
64230;BME280;50547;49.498;0.092;2023-01-31T01:11:29;1024.17;;;7.51;85.54
64230;BME280;50547;49.498;0.092;2023-01-31T01:13:59;1024.17;;;7.51;85.54
64230;BME280;50547;49.498;0.092;2023-01-31T01:16:31;1024.17;;;7.51;85.54
64230;BME280;50547;49.498;0.092;2023-01-31T01:19:03;1024.17;;;7.51;85.54
64230;BME280;50547;49.498;0.092;2023-01-31T01:21:33;1024.17;;;7.51;85.54
64230;BME280;50547;49.498;0.092;2023-01-31T01:24:02;1024.17;;;7.51;85.54
64230;BME280;50547;49.498;0.092;2023-01-31T01:26:32;1024.17;;;7.51;85.54
64230;BME280;50547;49.498;0.092;2023-01-31T01:29:02;1024.17;;;7.51;85.54
64230;BME280;50547;49.498;0.092;2023-01-31T01:31:32;1024.17;;;7.51;85.54
64230;BME280;50547;49.498;0.092;2023-01-31T01:34:03;1024.17;;;7.51;85.54
64230;BME280;50547;49.498;0.092;2023-01-31T01:36:33;1024.17;;;7.51;85.54
64230;BME280;50547;49.498;0.092;2023-01-31T01:39:04;1024.17;;;7.51;85.54
64230;BME280;50547;49.498;0.092;2023-01-31T01:41:34;1024.17;;;7.51;85.54
64230;BME280;50547;49.498;0.092;2023-01-31T01:44:41;1024.17;;;7.51;85.54
64230;BME280;50547;49.498;0.092;2023-01-31T01:47:14;1024.17;;;7.51;85.54
64230;BME280;50547;49.498;0.092;2023-01-31T01:49:48;1024.17;;;7.51;85.54
64230;BME280;50547;49.498;0.092;2023-01-31T01:52:19;1024.17;;;7.51;85.54
64230;BME280;50547;49.498;0.092;2023-01-31T01:54:52;1024.17;;;7.51;85.54
64230;BME280;50547;49.498;0.092;2023-01-31T01:57:38;1024.17;;;7.51;85.54
64230;BME280;50547;49.498;0.092;2023-01-31T02:00:13;1024.17;;;7.51;85.54
64230;BME280;50547;49.498;0.092;2023-01-31T02:02:45;1024.17;;;7.51;85.54
64230;BME280;50547;49.498;0.092;2023-01-31T02:05:16;1024.17;;;7.51;85.54
64230;BME280;50547;49.498;0.092;2023-01-31T02:07:47;1024.17;;;7.51;85.54
64230;BME280;50547;49.498;0.092;2023-01-31T02:10:21;1024.17;;;7.51;85.54
64230;BME280;50547;49.498;0.092;2023-01-31T02:12:52;1024.17;;;7.51;85.54
64230;BME280;50547;49.498;0.092;2023-01-31T02:15:21;1024.17;;;7.51;85.54
64230;BME280;50547;49.498;0.092;2023-01-31T02:17:52;1024.17;;;7.51;85.54
64230;BME280;50547;49.498;0.092;2023-01-31T02:20:43;1024.17;;;7.51;85.54
64230;BME280;50547;49.498;0.092;2023-01-31T02:23:42;1024.17;;;7.51;85.54
64230;BME280;50547;49.498;0.092;2023-01-31T02:26:35;1024.17;;;7.51;85.54
64230;BME280;50547;49.498;0.092;2023-01-31T02:29:53;1024.17;;;7.51;85.54
64230;BME280;50547;49.498;0.092;2023-01-31T02:32:43;1024.17;;;7.51;85.54
64230;BME280;50547;49.498;0.092;2023-01-31T02:35:23;1024.17;;;7.51;85.54
64230;BME280;50547;49.498;0.092;2023-01-31T02:38:06;1024.17;;;7.51;85.54
64230;BME280;50547;49.498;0.092;2023-01-31T02:40:40;1024.17;;;7.51;85.54
64230;BME280;50547;49.498;0.092;2023-01-31T02:43:12;1024.17;;;7.51;85.54
64230;BME280;50547;49.498;0.092;2023-01-31T02:45:50;1024.17;;;7.51;85.54
64230;BME280;50547;49.498;0.092;2023-01-31T02:48:33;1024.17;;;7.51;85.54
64230;BME280;50547;49.498;0.092;2023-01-31T02:51:12;1024.17;;;7.51;85.54
64230;BME280;50547;49.498;0.092;2023-01-31T02:53:44;1024.17;;;7.51;85.54
64230;BME280;50547;49.498;0.092;2023-01-31T02:56:18;1024.17;;;7.51;85.54
64230;BME280;50547;49.498;0.092;2023-01-31T02:58:53;1024.17;;;7.51;85.54
64230;BME280;50547;49.498;0.092;2023-01-31T03:01:27;1024.17;;;7.51;85.54
64230;BME280;50547;49.498;0.092;2023-01-31T03:04:01;1024.17;;;7.51;85.54
64230;BME280;50547;49.498;0.092;2023-01-31T03:06:53;1024.17;;;7.51;85.54
64230;BME280;50547;49.498;0.092;2023-01-31T03:09:30;1024.17;;;7.51;85.54
64230;BME280;50547;49.498;0.092;2023-01-31T03:12:12;1024.17;;;7.51;85.54
64230;BME280;50547;49.498;0.092;2023-01-31T03:14:47;1024.17;;;7.51;85.54
64230;BME280;50547;49.498;0.092;2023-01-31T03:17:26;1024.17;;;7.51;85.54
64230;BME280;50547;49.498;0.092;2023-01-31T03:20:06;1024.17;;;7.51;85.54
64230;BME280;50547;49.498;0.092;2023-01-31T03:22:38;1024.17;;;7.51;85.54
64230;BME280;50547;49.498;0.092;2023-01-31T03:25:12;1024.17;;;7.51;85.54
64230;BME280;50547;49.498;0.092;2023-01-31T03:27:44;1024.17;;;7.51;85.54
64230;BME280;50547;49.498;0.092;2023-01-31T03:30:18;1024.17;;;7.51;85.54
64230;BME280;50547;49.498;0.092;2023-01-31T03:32:54;1024.17;;;7.51;85.54
64230;BME280;50547;49.498;0.092;2023-01-31T03:35:26;1024.17;;;7.51;85.54
64230;BME280;50547;49.498;0.092;2023-01-31T03:38:03;1024.17;;;7.51;85.54
64230;BME280;50547;49.498;0.092;2023-01-31T03:40:37;1024.17;;;7.51;85.54
64230;BME280;50547;49.498;0.092;2023-01-31T03:43:11;1024.17;;;7.51;85.54
64230;BME280;50547;49.498;0.092;2023-01-31T03:45:45;1024.17;;;7.51;85.54
64230;BME280;50547;49.498;0.092;2023-01-31T03:48:17;1024.17;;;7.51;85.54
64230;BME280;50547;49.498;0.092;2023-01-31T03:50:51;1024.17;;;7.51;85.54
64230;BME280;50547;49.498;0.092;2023-01-31T03:53:24;1024.17;;;7.51;85.54
64230;BME280;50547;49.498;0.092;2023-01-31T03:55:58;1024.17;;;7.51;85.54
64230;BME280;50547;49.498;0.092;2023-01-31T03:58:33;1024.17;;;7.51;85.54
64230;BME280;50547;49.498;0.092;2023-01-31T04:01:06;1024.17;;;7.51;85.54
64230;BME280;50547;49.498;0.092;2023-01-31T04:03:40;1024.17;;;7.51;85.54
64230;BME280;50547;49.498;0.092;2023-01-31T04:06:10;1024.17;;;7.51;85.54
64230;BME280;50547;49.498;0.092;2023-01-31T04:08:41;1024.17;;;7.51;85.54
64230;BME280;50547;49.498;0.092;2023-01-31T04:11:12;1024.17;;;7.51;85.54
64230;BME280;50547;49.498;0.092;2023-01-31T04:13:41;1024.17;;;7.51;85.54
64230;BME280;50547;49.498;0.092;2023-01-31T04:16:11;1024.17;;;7.51;85.54
64230;BME280;50547;49.498;0.092;2023-01-31T04:18:39;1024.17;;;7.51;85.54
64230;BME280;50547;49.498;0.092;2023-01-31T04:21:09;1024.17;;;7.51;85.54
64230;BME280;50547;49.498;0.092;2023-01-31T04:23:38;1024.17;;;7.51;85.54
64230;BME280;50547;49.498;0.092;2023-01-31T04:26:07;1024.17;;;7.51;85.54
64230;BME280;50547;49.498;0.092;2023-01-31T04:28:36;1024.17;;;7.51;85.54
64230;BME280;50547;49.498;0.092;2023-01-31T04:31:05;1024.17;;;7.51;85.54
64230;BME280;50547;49.498;0.092;2023-01-31T04:33:34;1024.17;;;7.51;85.54
64230;BME280;50547;49.498;0.092;2023-01-31T04:36:04;1024.17;;;7.51;85.54
64230;BME280;50547;49.498;0.092;2023-01-31T04:38:33;1024.17;;;7.51;85.54
64230;BME280;50547;49.498;0.092;2023-01-31T04:41:02;1024.17;;;7.51;85.54
64230;BME280;50547;49.498;0.092;2023-01-31T04:43:31;1024.17;;;7.51;85.54
64230;BME280;50547;49.498;0.092;2023-01-31T04:46:00;1024.17;;;7.51;85.54
64230;BME280;50547;49.498;0.092;2023-01-31T04:48:29;1024.17;;;7.51;85.54
64230;BME280;50547;49.498;0.092;2023-01-31T04:50:58;1024.17;;;7.51;85.54
64230;BME280;50547;49.498;0.092;2023-01-31T04:53:27;1024.17;;;7.51;85.54
64230;BME280;50547;49.498;0.092;2023-01-31T04:55:56;1024.17;;;7.51;85.54
64230;BME280;50547;49.498;0.092;2023-01-31T04:58:25;1024.17;;;7.51;85.54
64230;BME280;50547;49.498;0.092;2023-01-31T05:00:54;1024.17;;;7.51;85.54
64230;BME280;50547;49.498;0.092;2023-01-31T05:03:24;1024.17;;;7.51;85.54
64230;BME280;50547;49.498;0.092;2023-01-31T05:05:53;1024.17;;;7.51;85.54
64230;BME280;50547;49.498;0.092;2023-01-31T05:08:22;1024.17;;;7.51;85.54
64230;BME280;50547;49.498;0.092;2023-01-31T05:10:56;1024.17;;;7.51;85.54
64230;BME280;50547;49.498;0.092;2023-01-31T05:13:26;1024.17;;;7.51;85.54
64230;BME280;50547;49.498;0.092;2023-01-31T05:15:55;1024.17;;;7.51;85.54
64230;BME280;50547;49.498;0.092;2023-01-31T05:18:24;1024.17;;;7.51;85.54
64230;BME280;50547;49.498;0.092;2023-01-31T05:20:53;1024.17;;;7.51;85.54
64230;BME280;50547;49.498;0.092;2023-01-31T05:23:22;1024.17;;;7.51;85.54
64230;BME280;50547;49.498;0.092;2023-01-31T05:25:51;1024.17;;;7.51;85.54
64230;BME280;50547;49.498;0.092;2023-01-31T05:28:21;1024.17;;;7.51;85.54
64230;BME280;50547;49.498;0.092;2023-01-31T05:30:50;1024.17;;;7.51;85.54
64230;BME280;50547;49.498;0.092;2023-01-31T05:33:19;1024.17;;;7.51;85.54
64230;BME280;50547;49.498;0.092;2023-01-31T05:35:48;1024.17;;;7.51;85.54
64230;BME280;50547;49.498;0.092;2023-01-31T05:38:17;1024.17;;;7.51;85.54
64230;BME280;50547;49.498;0.092;2023-01-31T05:40:48;1024.17;;;7.51;85.54
64230;BME280;50547;49.498;0.092;2023-01-31T05:43:17;1024.17;;;7.51;85.54
64230;BME280;50547;49.498;0.092;2023-01-31T05:45:46;1024.17;;;7.51;85.54
64230;BME280;50547;49.498;0.092;2023-01-31T05:48:16;1024.17;;;7.51;85.54
64230;BME280;50547;49.498;0.092;2023-01-31T05:50:45;1024.17;;;7.51;85.54
64230;BME280;50547;49.498;0.092;2023-01-31T05:53:13;1024.17;;;7.51;85.54
64230;BME280;50547;49.498;0.092;2023-01-31T05:55:42;1024.17;;;7.51;85.54
64230;BME280;50547;49.498;0.092;2023-01-31T05:58:11;1024.17;;;7.51;85.54
64230;BME280;50547;49.498;0.092;2023-01-31T06:00:40;1024.17;;;7.51;85.54
64230;BME280;50547;49.498;0.092;2023-01-31T06:03:10;1024.17;;;7.51;85.54
64230;BME280;50547;49.498;0.092;2023-01-31T06:05:39;1024.17;;;7.51;85.54
64230;BME280;50547;49.498;0.092;2023-01-31T06:08:08;1024.17;;;7.51;85.54
64230;BME280;50547;49.498;0.092;2023-01-31T06:10:37;1024.17;;;7.51;85.54
64230;BME280;50547;49.498;0.092;2023-01-31T06:13:06;1024.17;;;7.51;85.54
64230;BME280;50547;49.498;0.092;2023-01-31T06:15:35;1024.17;;;7.51;85.54
64230;BME280;50547;49.498;0.092;2023-01-31T06:18:04;1024.17;;;7.51;85.54
64230;BME280;50547;49.498;0.092;2023-01-31T06:20:33;1024.17;;;7.51;85.54
64230;BME280;50547;49.498;0.092;2023-01-31T06:23:02;1024.17;;;7.51;85.54
64230;BME280;50547;49.498;0.092;2023-01-31T06:25:32;1024.17;;;7.51;85.54
64230;BME280;50547;49.498;0.092;2023-01-31T06:28:01;1024.17;;;7.51;85.54
64230;BME280;50547;49.498;0.092;2023-01-31T06:30:30;1024.17;;;7.51;85.54
64230;BME280;50547;49.498;0.092;2023-01-31T06:32:59;1024.17;;;7.51;85.54
64230;BME280;50547;49.498;0.092;2023-01-31T06:35:29;1024.17;;;7.51;85.54
64230;BME280;50547;49.498;0.092;2023-01-31T06:37:58;1024.17;;;7.51;85.54
64230;BME280;50547;49.498;0.092;2023-01-31T06:40:27;1024.17;;;7.51;85.54
64230;BME280;50547;49.498;0.092;2023-01-31T06:42:56;1024.17;;;7.51;85.54
64230;BME280;50547;49.498;0.092;2023-01-31T06:45:25;1024.17;;;7.51;85.54
64230;BME280;50547;49.498;0.092;2023-01-31T06:47:54;1024.17;;;7.51;85.54
64230;BME280;50547;49.498;0.092;2023-01-31T06:50:23;1024.17;;;7.51;85.54
64230;BME280;50547;49.498;0.092;2023-01-31T06:52:52;1024.17;;;7.51;85.54
64230;BME280;50547;49.498;0.092;2023-01-31T06:55:21;1024.17;;;7.51;85.54
64230;BME280;50547;49.498;0.092;2023-01-31T06:57:50;1024.17;;;7.51;85.54
64230;BME280;50547;49.498;0.092;2023-01-31T07:00:20;1024.17;;;7.51;85.54
64230;BME280;50547;49.498;0.092;2023-01-31T07:02:49;1024.17;;;7.51;85.54
64230;BME280;50547;49.498;0.092;2023-01-31T07:05:19;1024.17;;;7.51;85.54
64230;BME280;50547;49.498;0.092;2023-01-31T07:07:48;1024.17;;;7.51;85.54
64230;BME280;50547;49.498;0.092;2023-01-31T07:10:17;1024.17;;;7.51;85.54
64230;BME280;50547;49.498;0.092;2023-01-31T07:12:46;1024.17;;;7.51;85.54
64230;BME280;50547;49.498;0.092;2023-01-31T07:15:15;1024.17;;;7.51;85.54
64230;BME280;50547;49.498;0.092;2023-01-31T07:17:44;1024.17;;;7.51;85.54
64230;BME280;50547;49.498;0.092;2023-01-31T07:20:13;1024.17;;;7.51;85.54
64230;BME280;50547;49.498;0.092;2023-01-31T07:22:43;1024.17;;;7.51;85.54
64230;BME280;50547;49.498;0.092;2023-01-31T07:25:12;1024.17;;;7.51;85.54
64230;BME280;50547;49.498;0.092;2023-01-31T07:27:42;1024.17;;;7.51;85.54
64230;BME280;50547;49.498;0.092;2023-01-31T07:41:05;0.00;;;0.00;0.00
64230;BME280;50547;49.498;0.092;2023-01-31T08:03:22;0.00;;;0.00;0.00
64230;BME280;50547;49.498;0.092;2023-01-31T08:05:52;0.00;;;0.00;0.00
64230;BME280;50547;49.498;0.092;2023-01-31T08:08:21;0.00;;;0.00;0.00
64230;BME280;50547;49.498;0.092;2023-01-31T08:10:50;0.00;;;0.00;0.00
64230;BME280;50547;49.498;0.092;2023-01-31T08:13:19;0.00;;;0.00;0.00
64230;BME280;50547;49.498;0.092;2023-01-31T08:15:50;0.00;;;0.00;0.00
64230;BME280;50547;49.498;0.092;2023-01-31T08:18:19;0.00;;;0.00;0.00
64230;BME280;50547;49.498;0.092;2023-01-31T08:20:48;0.00;;;0.00;0.00
64230;BME280;50547;49.498;0.092;2023-01-31T08:23:17;0.00;;;0.00;0.00
64230;BME280;50547;49.498;0.092;2023-01-31T08:25:46;0.00;;;0.00;0.00
64230;BME280;50547;49.498;0.092;2023-01-31T08:28:15;0.00;;;0.00;0.00
64230;BME280;50547;49.498;0.092;2023-01-31T08:30:44;0.00;;;0.00;0.00
64230;BME280;50547;49.498;0.092;2023-01-31T08:33:13;0.00;;;0.00;0.00
64230;BME280;50547;49.498;0.092;2023-01-31T08:35:42;0.00;;;0.00;0.00
64230;BME280;50547;49.498;0.092;2023-01-31T08:38:11;0.00;;;0.00;0.00
64230;BME280;50547;49.498;0.092;2023-01-31T08:40:37;0.00;;;0.00;0.00
64230;BME280;50547;49.498;0.092;2023-01-31T08:43:07;0.00;;;0.00;0.00
64230;BME280;50547;49.498;0.092;2023-01-31T08:45:36;0.00;;;0.00;0.00
64230;BME280;50547;49.498;0.092;2023-01-31T08:48:06;0.00;;;0.00;0.00
64230;BME280;50547;49.498;0.092;2023-01-31T08:50:35;0.00;;;0.00;0.00
64230;BME280;50547;49.498;0.092;2023-01-31T08:53:04;0.00;;;0.00;0.00
64230;BME280;50547;49.498;0.092;2023-01-31T08:55:34;0.00;;;0.00;0.00
64230;BME280;50547;49.498;0.092;2023-01-31T08:58:04;0.00;;;0.00;0.00
64230;BME280;50547;49.498;0.092;2023-01-31T09:00:33;0.00;;;0.00;0.00
64230;BME280;50547;49.498;0.092;2023-01-31T09:03:02;0.00;;;0.00;0.00
64230;BME280;50547;49.498;0.092;2023-01-31T09:05:31;0.00;;;0.00;0.00
64230;BME280;50547;49.498;0.092;2023-01-31T09:08:00;0.00;;;0.00;0.00
64230;BME280;50547;49.498;0.092;2023-01-31T09:10:29;0.00;;;0.00;0.00
64230;BME280;50547;49.498;0.092;2023-01-31T09:12:58;0.00;;;0.00;0.00
64230;BME280;50547;49.498;0.092;2023-01-31T09:15:28;0.00;;;0.00;0.00
64230;BME280;50547;49.498;0.092;2023-01-31T09:17:57;0.00;;;0.00;0.00
64230;BME280;50547;49.498;0.092;2023-01-31T09:20:26;0.00;;;0.00;0.00
64230;BME280;50547;49.498;0.092;2023-01-31T09:22:55;0.00;;;0.00;0.00
64230;BME280;50547;49.498;0.092;2023-01-31T09:25:24;0.00;;;0.00;0.00
64230;BME280;50547;49.498;0.092;2023-01-31T09:27:53;0.00;;;0.00;0.00
64230;BME280;50547;49.498;0.092;2023-01-31T09:30:23;0.00;;;0.00;0.00
64230;BME280;50547;49.498;0.092;2023-01-31T09:32:52;0.00;;;0.00;0.00
64230;BME280;50547;49.498;0.092;2023-01-31T09:35:19;0.00;;;0.00;0.00
64230;BME280;50547;49.498;0.092;2023-01-31T09:37:48;0.00;;;0.00;0.00
64230;BME280;50547;49.498;0.092;2023-01-31T09:40:20;0.00;;;0.00;0.00
64230;BME280;50547;49.498;0.092;2023-01-31T09:42:50;0.00;;;0.00;0.00
64230;BME280;50547;49.498;0.092;2023-01-31T09:45:28;0.00;;;0.00;0.00
64230;BME280;50547;49.498;0.092;2023-01-31T09:48:00;0.00;;;0.00;0.00
64230;BME280;50547;49.498;0.092;2023-01-31T09:50:32;0.00;;;0.00;0.00
64230;BME280;50547;49.498;0.092;2023-01-31T09:53:02;0.00;;;0.00;0.00
64230;BME280;50547;49.498;0.092;2023-01-31T09:55:39;0.00;;;0.00;0.00
64230;BME280;50547;49.498;0.092;2023-01-31T09:58:18;0.00;;;0.00;0.00
64230;BME280;50547;49.498;0.092;2023-01-31T10:00:59;0.00;;;0.00;0.00
64230;BME280;50547;49.498;0.092;2023-01-31T10:03:42;0.00;;;0.00;0.00
64230;BME280;50547;49.498;0.092;2023-01-31T10:06:20;0.00;;;0.00;0.00
64230;BME280;50547;49.498;0.092;2023-01-31T10:08:57;0.00;;;0.00;0.00
64230;BME280;50547;49.498;0.092;2023-01-31T10:11:30;0.00;;;0.00;0.00
64230;BME280;50547;49.498;0.092;2023-01-31T10:14:12;0.00;;;0.00;0.00
64230;BME280;50547;49.498;0.092;2023-01-31T10:16:55;0.00;;;0.00;0.00
64230;BME280;50547;49.498;0.092;2023-01-31T10:19:29;0.00;;;0.00;0.00
64230;BME280;50547;49.498;0.092;2023-01-31T10:22:05;0.00;;;0.00;0.00
64230;BME280;50547;49.498;0.092;2023-01-31T10:24:38;0.00;;;0.00;0.00
64230;BME280;50547;49.498;0.092;2023-01-31T10:27:13;0.00;;;0.00;0.00
64230;BME280;50547;49.498;0.092;2023-01-31T10:29:49;0.00;;;0.00;0.00
64230;BME280;50547;49.498;0.092;2023-01-31T10:32:24;0.00;;;0.00;0.00
64230;BME280;50547;49.498;0.092;2023-01-31T10:35:00;0.00;;;0.00;0.00
64230;BME280;50547;49.498;0.092;2023-01-31T10:37:36;0.00;;;0.00;0.00
64230;BME280;50547;49.498;0.092;2023-01-31T10:40:13;0.00;;;0.00;0.00
64230;BME280;50547;49.498;0.092;2023-01-31T10:42:47;0.00;;;0.00;0.00
64230;BME280;50547;49.498;0.092;2023-01-31T10:45:19;0.00;;;0.00;0.00
64230;BME280;50547;49.498;0.092;2023-01-31T10:47:50;0.00;;;0.00;0.00
64230;BME280;50547;49.498;0.092;2023-01-31T10:50:25;0.00;;;0.00;0.00
64230;BME280;50547;49.498;0.092;2023-01-31T10:53:10;0.00;;;0.00;0.00
64230;BME280;50547;49.498;0.092;2023-01-31T10:55:53;965.74;;;17.07;47.75
64230;BME280;50547;49.498;0.092;2023-01-31T11:00:32;1026.70;;;10.67;70.94
64230;BME280;50547;49.498;0.092;2023-01-31T11:03:01;1026.69;;;10.63;71.85
64230;BME280;50547;49.498;0.092;2023-01-31T11:05:30;1026.67;;;10.61;72.62
64230;BME280;50547;49.498;0.092;2023-01-31T11:08:05;1026.69;;;10.70;72.58
64230;BME280;50547;49.498;0.092;2023-01-31T11:10:50;1026.76;;;10.50;73.46
64230;BME280;50547;49.498;0.092;2023-01-31T11:13:20;1026.69;;;10.43;73.92
64230;BME280;50547;49.498;0.092;2023-01-31T11:15:51;1026.59;;;10.36;74.04
64230;BME280;50547;49.498;0.092;2023-01-31T11:18:26;1026.41;;;10.33;74.39
64230;BME280;50547;49.498;0.092;2023-01-31T11:20:57;1026.47;;;10.41;74.07
64230;BME280;50547;49.498;0.092;2023-01-31T11:23:27;1026.39;;;10.49;74.32
64230;BME280;50547;49.498;0.092;2023-01-31T11:25:59;1026.33;;;10.46;74.51
64230;BME280;50547;49.498;0.092;2023-01-31T11:28:35;1026.35;;;10.55;74.53
64230;BME280;50547;49.498;0.092;2023-01-31T11:31:14;1026.37;;;10.52;74.63
64230;BME280;50547;49.498;0.092;2023-01-31T11:33:47;1026.41;;;10.46;74.98
64230;BME280;50547;49.498;0.092;2023-01-31T11:36:22;1026.39;;;10.30;75.82
64230;BME280;50547;49.498;0.092;2023-01-31T11:38:49;1026.45;;;10.19;76.14
64230;BME280;50547;49.498;0.092;2023-01-31T11:41:30;1026.39;;;10.23;75.98
64230;BME280;50547;49.498;0.092;2023-01-31T11:44:11;1026.27;;;10.23;76.07
64230;BME280;50547;49.498;0.092;2023-01-31T11:46:43;1026.18;;;10.38;75.95
64230;BME280;50547;49.498;0.092;2023-01-31T11:49:20;1025.97;;;10.53;75.73
64230;BME280;50547;49.498;0.092;2023-01-31T11:51:50;1025.95;;;10.70;75.26
64230;BME280;50547;49.498;0.092;2023-01-31T11:54:22;1025.83;;;10.81;75.48
64230;BME280;50547;49.498;0.092;2023-01-31T11:56:52;1025.87;;;10.69;76.40
64230;BME280;50547;49.498;0.092;2023-01-31T11:59:25;1025.79;;;10.23;78.83
64230;BME280;50547;49.498;0.092;2023-01-31T12:01:54;1025.70;;;10.01;79.86
64230;BME280;50547;49.498;0.092;2023-01-31T12:04:30;1025.60;;;9.76;80.74
64230;BME280;50547;49.498;0.092;2023-01-31T12:07:03;1025.70;;;9.85;79.80
64230;BME280;50547;49.498;0.092;2023-01-31T12:09:42;1025.68;;;10.20;78.07
64230;BME280;50547;49.498;0.092;2023-01-31T12:12:28;1025.77;;;10.08;78.22
64230;BME280;50547;49.498;0.092;2023-01-31T12:15:00;1025.87;;;10.39;77.47
64230;BME280;50547;49.498;0.092;2023-01-31T12:17:41;1025.97;;;10.72;76.34
64230;BME280;50547;49.498;0.092;2023-01-31T12:20:20;1026.12;;;10.82;76.29
64230;BME280;50547;49.498;0.092;2023-01-31T12:22:56;1026.08;;;10.97;75.92
64230;BME280;50547;49.498;0.092;2023-01-31T12:25:34;1025.99;;;11.12;75.56
64230;BME280;50547;49.498;0.092;2023-01-31T12:28:18;1026.08;;;11.08;75.92
64230;BME280;50547;49.498;0.092;2023-01-31T12:31:00;1025.93;;;10.93;76.88
64230;BME280;50547;49.498;0.092;2023-01-31T12:33:43;1025.99;;;10.95;76.82
64230;BME280;50547;49.498;0.092;2023-01-31T12:36:24;1025.99;;;10.84;77.43
64230;BME280;50547;49.498;0.092;2023-01-31T12:39:11;1025.85;;;10.93;77.17
64230;BME280;50547;49.498;0.092;2023-01-31T12:41:51;1025.79;;;10.93;77.26
64230;BME280;50547;49.498;0.092;2023-01-31T12:44:38;1025.64;;;11.00;76.99
64230;BME280;50547;49.498;0.092;2023-01-31T12:47:30;1025.70;;;11.04;76.91
64230;BME280;50547;49.498;0.092;2023-01-31T12:50:41;1025.66;;;11.29;76.14
64230;BME280;50547;49.498;0.092;2023-01-31T12:53:25;1025.60;;;11.49;75.65
64230;BME280;50547;49.498;0.092;2023-01-31T12:56:09;1025.58;;;11.52;75.96
64230;BME280;50547;49.498;0.092;2023-01-31T12:58:48;1025.54;;;11.61;76.03
64230;BME280;50547;49.498;0.092;2023-01-31T13:01:30;1025.52;;;11.46;76.70
64230;BME280;50547;49.498;0.092;2023-01-31T13:04:21;1025.54;;;11.32;77.27
64230;BME280;50547;49.498;0.092;2023-01-31T13:06:56;1025.46;;;11.18;78.00
64230;BME280;50547;49.498;0.092;2023-01-31T13:09:30;1025.40;;;11.09;78.41
64230;BME280;50547;49.498;0.092;2023-01-31T13:12:04;1025.44;;;11.10;78.21
64230;BME280;50547;49.498;0.092;2023-01-31T13:14:37;1025.42;;;11.13;78.05
64230;BME280;50547;49.498;0.092;2023-01-31T13:17:11;1025.44;;;11.13;78.15
64230;BME280;50547;49.498;0.092;2023-01-31T13:19:45;1025.36;;;11.15;78.21
64230;BME280;50547;49.498;0.092;2023-01-31T13:22:21;1025.36;;;11.14;78.26
64230;BME280;50547;49.498;0.092;2023-01-31T13:24:58;1025.34;;;11.08;78.66
64230;BME280;50547;49.498;0.092;2023-01-31T13:27:36;1025.34;;;11.00;79.06
64230;BME280;50547;49.498;0.092;2023-01-31T13:30:18;1025.36;;;10.93;79.32
64230;BME280;50547;49.498;0.092;2023-01-31T13:32:51;1025.27;;;10.86;79.66
64230;BME280;50547;49.498;0.092;2023-01-31T13:35:25;1025.32;;;10.84;79.87
64230;BME280;50547;49.498;0.092;2023-01-31T13:37:59;1025.19;;;10.74;80.16
64230;BME280;50547;49.498;0.092;2023-01-31T13:40:33;1025.30;;;10.74;80.31
64230;BME280;50547;49.498;0.092;2023-01-31T13:43:11;1025.29;;;10.65;80.81
64230;BME280;50547;49.498;0.092;2023-01-31T13:45:43;1025.15;;;10.56;81.31
64230;BME280;50547;49.498;0.092;2023-01-31T13:48:21;1025.13;;;10.54;81.33
64230;BME280;50547;49.498;0.092;2023-01-31T13:50:57;1025.07;;;10.37;82.26
64230;BME280;50547;49.498;0.092;2023-01-31T13:53:31;1025.17;;;10.35;82.35
64230;BME280;50547;49.498;0.092;2023-01-31T13:56:03;1025.21;;;10.36;82.29
64230;BME280;50547;49.498;0.092;2023-01-31T13:58:38;1025.09;;;10.33;82.39
64230;BME280;50547;49.498;0.092;2023-01-31T14:01:14;1025.09;;;10.37;82.31
64230;BME280;50547;49.498;0.092;2023-01-31T14:04:49;1025.19;;;10.48;81.79
64230;BME280;50547;49.498;0.092;2023-01-31T14:07:21;1025.23;;;10.55;81.48
64230;BME280;50547;49.498;0.092;2023-01-31T14:10:56;1025.03;;;10.57;81.62
64230;BME280;50547;49.498;0.092;2023-01-31T14:13:43;1024.99;;;10.49;82.00
64230;BME280;50547;49.498;0.092;2023-01-31T14:16:45;1024.99;;;10.43;82.31
64230;BME280;50547;49.498;0.092;2023-01-31T14:20:01;1024.97;;;10.43;82.31
64230;BME280;50547;49.498;0.092;2023-01-31T14:22:33;1025.01;;;10.48;82.23
64230;BME280;50547;49.498;0.092;2023-01-31T14:25:05;1024.95;;;10.52;82.12
64230;BME280;50547;49.498;0.092;2023-01-31T14:27:42;1024.91;;;10.64;81.58
64230;BME280;50547;49.498;0.092;2023-01-31T14:30:35;1024.93;;;10.72;81.22
64230;BME280;50547;49.498;0.092;2023-01-31T14:33:15;1024.91;;;10.68;81.65
64230;BME280;50547;49.498;0.092;2023-01-31T14:35:59;1024.87;;;10.64;81.95